createdAt,value
2019-01-09T00:01:37.313Z,4.07
2019-01-09T00:04:07.655Z,2.57
2019-01-09T00:06:38.357Z,2.75
2019-01-09T00:09:09.432Z,4.17
2019-01-09T00:11:39.782Z,3.40
2019-01-09T00:14:10.631Z,4.20
2019-01-09T00:16:41.800Z,3.85
2019-01-09T00:19:12.438Z,5.03
2019-01-09T00:21:42.920Z,4.77
2019-01-09T00:24:13.620Z,4.28
2019-01-09T00:26:44.233Z,4.35
2019-01-09T00:29:14.788Z,3.33
2019-01-09T00:31:45.159Z,3.10
2019-01-09T00:34:15.698Z,2.67
2019-01-09T00:36:46.394Z,2.47
2019-01-09T00:39:16.728Z,2.83
2019-01-09T00:41:47.365Z,2.52
2019-01-09T00:44:17.777Z,2.40
2019-01-09T00:46:48.357Z,3.02
2019-01-09T00:49:18.668Z,2.27
2019-01-09T00:51:49.447Z,1.80
2019-01-09T00:54:19.732Z,2.10
2019-01-09T00:56:50.342Z,1.30
2019-01-09T00:59:20.737Z,1.73
2019-01-09T01:02:10.643Z,2.08
2019-01-09T01:05:21.286Z,1.93
2019-01-09T01:08:36.700Z,3.23
2019-01-09T01:11:41.665Z,1.37
2019-01-09T01:14:52.793Z,1.75
2019-01-09T01:17:56.771Z,1.50
2019-01-09T01:20:55.107Z,1.95
2019-01-09T01:24:08.119Z,1.20
2019-01-09T01:26:54.112Z,4.77
2019-01-09T01:30:12.423Z,2.50
2019-01-09T01:33:07.686Z,2.13
2019-01-09T01:36:34.047Z,1.70
2019-01-09T01:39:35.964Z,2.53
2019-01-09T01:42:42.814Z,2.03
2019-01-09T01:45:47.532Z,1.60
2019-01-09T01:48:42.133Z,2.13
2019-01-09T01:51:49.852Z,2.10
2019-01-09T01:54:52.919Z,3.08
2019-01-09T01:57:52.495Z,1.90
2019-01-09T02:00:36.910Z,2.50
2019-01-09T02:03:56.722Z,1.60
2019-01-09T02:06:52.125Z,2.83
2019-01-09T02:10:15.207Z,2.10
2019-01-09T02:13:28.323Z,1.90
2019-01-09T02:16:50.316Z,2.17
2019-01-09T02:19:29.088Z,2.30
2019-01-09T02:22:32.971Z,3.33
2019-01-09T02:25:31.144Z,1.70
2019-01-09T02:29:00.713Z,1.93
2019-01-09T02:31:49.632Z,1.92
2019-01-09T02:34:20.239Z,2.10
2019-01-09T02:36:50.546Z,2.37
2019-01-09T02:39:21.034Z,2.40
2019-01-09T02:41:51.670Z,1.67
2019-01-09T02:44:31.842Z,1.62
2019-01-09T02:46:54.748Z,2.37
2019-01-09T02:49:25.860Z,2.37
2019-01-09T02:51:56.541Z,2.90
2019-01-09T02:54:26.989Z,1.83
2019-01-09T02:56:57.579Z,1.55
2019-01-09T02:59:29.399Z,1.90
2019-01-09T03:01:59.865Z,1.80
2019-01-09T03:04:30.493Z,1.50
2019-01-09T03:07:00.908Z,2.27
2019-01-09T03:09:31.672Z,1.80
2019-01-09T03:12:01.991Z,1.50
2019-01-09T03:14:32.426Z,1.50
2019-01-09T03:17:02.824Z,1.60
2019-01-09T03:19:33.446Z,1.80
2019-01-09T03:22:03.786Z,1.67
2019-01-09T03:24:34.603Z,2.67
2019-01-09T03:27:05.775Z,1.90
2019-01-09T03:29:36.370Z,1.70
2019-01-09T03:32:06.781Z,1.80
2019-01-09T03:34:37.400Z,2.22
2019-01-09T03:37:07.705Z,1.60
2019-01-09T03:39:38.080Z,1.90
2019-01-09T03:42:08.727Z,2.25
2019-01-09T03:44:39.320Z,2.00
2019-01-09T03:47:09.706Z,2.03
2019-01-09T03:49:40.342Z,2.10
2019-01-09T03:52:10.663Z,1.73
2019-01-09T03:54:41.124Z,1.87
2019-01-09T03:57:11.468Z,1.80
2019-01-09T03:59:41.758Z,1.70
2019-01-09T04:02:12.456Z,1.87
2019-01-09T04:04:42.747Z,1.60
2019-01-09T04:07:13.374Z,2.08
2019-01-09T04:09:43.808Z,2.03
2019-01-09T04:12:14.542Z,1.70
2019-01-09T04:14:44.852Z,1.63
2019-01-09T04:17:15.637Z,2.42
2019-01-09T04:19:45.955Z,1.70
2019-01-09T04:22:16.870Z,2.10
2019-01-09T04:24:47.779Z,2.17
2019-01-09T04:27:18.407Z,1.77
2019-01-09T04:29:48.725Z,1.60
2019-01-09T04:32:19.453Z,1.70
2019-01-09T04:34:49.798Z,2.90
2019-01-09T04:37:20.289Z,1.92
2019-01-09T04:39:50.882Z,1.50
2019-01-09T04:42:21.524Z,1.50
2019-01-09T04:44:51.852Z,3.10
2019-01-09T04:47:22.421Z,1.80
2019-01-09T04:49:52.765Z,2.00
2019-01-09T04:52:23.380Z,1.98
2019-01-09T04:54:53.798Z,1.70
2019-01-09T04:57:24.424Z,1.75
2019-01-09T04:59:54.760Z,1.83
2019-01-09T05:02:25.471Z,1.60
2019-01-09T05:04:55.792Z,2.00
2019-01-09T05:07:26.393Z,1.77
2019-01-09T05:09:56.846Z,1.60
2019-01-09T05:12:27.546Z,1.95
2019-01-09T05:14:57.950Z,1.90
2019-01-09T05:17:28.616Z,1.63
2019-01-09T05:19:58.945Z,1.80
2019-01-09T05:22:29.578Z,1.93
2019-01-09T05:24:59.989Z,1.50
2019-01-09T05:27:30.569Z,1.60
2019-01-09T05:30:00.916Z,1.87
2019-01-09T05:32:31.633Z,1.63
2019-01-09T05:35:02.289Z,2.40
2019-01-09T05:37:33.835Z,1.80
2019-01-09T05:40:04.529Z,1.90
2019-01-09T05:42:34.860Z,1.70
2019-01-09T05:45:05.522Z,1.90
2019-01-09T05:47:35.927Z,2.47
2019-01-09T05:50:06.585Z,1.57
2019-01-09T05:52:36.917Z,1.93
2019-01-09T05:55:07.618Z,1.70
2019-01-09T05:57:38.016Z,3.27
2019-01-09T06:00:09.450Z,2.43
2019-01-09T06:02:39.887Z,2.50
2019-01-09T06:05:10.480Z,1.90
2019-01-09T06:07:40.806Z,1.60
2019-01-09T06:10:11.530Z,1.90
2019-01-09T06:12:41.843Z,1.93
2019-01-09T06:15:13.570Z,3.27
2019-01-09T06:17:43.883Z,1.93
2019-01-09T06:20:14.461Z,2.07
2019-01-09T06:22:44.775Z,3.03
2019-01-09T06:25:15.473Z,2.77
2019-01-09T06:27:45.886Z,2.53
2019-01-09T06:30:16.431Z,2.63
2019-01-09T06:32:46.870Z,3.47
2019-01-09T06:35:17.530Z,2.70
2019-01-09T06:37:47.833Z,2.97
2019-01-09T06:40:18.574Z,2.85
2019-01-09T06:42:48.897Z,3.10
2019-01-09T06:45:19.542Z,2.83
2019-01-09T06:47:49.958Z,3.57
2019-01-09T06:50:21.425Z,3.07
2019-01-09T06:52:51.808Z,3.23
2019-01-09T06:55:22.640Z,3.30
2019-01-09T06:57:52.946Z,5.23
2019-01-09T07:00:23.633Z,4.03
2019-01-09T07:02:54.034Z,5.00
2019-01-09T07:05:24.679Z,4.83
2019-01-09T07:07:55.341Z,4.45
2019-01-09T07:10:25.775Z,3.93
2019-01-09T07:12:56.406Z,3.40
2019-01-09T07:15:26.846Z,5.27
2019-01-09T07:17:57.628Z,4.10
2019-01-09T07:20:27.942Z,4.20
2019-01-09T07:22:58.508Z,4.12
2019-01-09T07:25:29.367Z,4.70
2019-01-09T07:28:00.937Z,4.12
2019-01-09T07:30:31.529Z,4.83
2019-01-09T07:33:01.946Z,4.40
2019-01-09T07:35:32.685Z,4.25
2019-01-09T07:38:03.307Z,4.77
2019-01-09T07:40:33.872Z,5.27
2019-01-09T07:43:04.704Z,6.03
2019-01-09T07:45:35.035Z,6.17
2019-01-09T07:48:05.620Z,6.67
2019-01-09T07:50:36.277Z,7.22
2019-01-09T07:53:06.662Z,5.87
2019-01-09T07:55:37.116Z,9.20
2019-01-09T07:58:07.784Z,6.53
2019-01-09T08:00:38.458Z,5.85
2019-01-09T08:03:08.897Z,5.77
2019-01-09T08:05:39.860Z,6.23
2019-01-09T08:08:10.522Z,8.50
2019-01-09T08:10:49.714Z,6.80
2019-01-09T08:13:20.358Z,10.28
2019-01-09T08:15:50.690Z,8.03
2019-01-09T08:18:21.396Z,6.10
2019-01-09T08:20:51.802Z,8.70
2019-01-09T08:23:22.390Z,8.33
2019-01-09T08:25:53.275Z,8.73
2019-01-09T08:28:23.783Z,8.77
2019-01-09T08:30:54.410Z,12.50
2019-01-09T08:33:24.951Z,6.80
2019-01-09T08:35:55.526Z,9.43
2019-01-09T08:38:25.870Z,7.20
2019-01-09T08:40:56.803Z,6.95
2019-01-09T08:43:27.420Z,8.90
2019-01-09T08:45:57.787Z,7.13
2019-01-09T08:48:28.556Z,13.25
2019-01-09T08:50:58.889Z,12.03
2019-01-09T08:53:29.520Z,8.93
2019-01-09T08:55:59.938Z,8.93
2019-01-09T08:58:30.600Z,10.82
2019-01-09T09:01:00.911Z,10.43
2019-01-09T09:03:31.667Z,10.82
2019-01-09T09:06:02.023Z,11.63
2019-01-09T09:08:32.562Z,14.00
2019-01-09T09:11:03.025Z,12.77
2019-01-09T09:13:40.996Z,13.03
2019-01-09T09:16:12.669Z,14.70
2019-01-09T09:18:43.474Z,12.73
2019-01-09T09:21:13.874Z,13.97
2019-01-09T09:23:44.573Z,14.70
2019-01-09T09:26:15.146Z,22.77
2019-01-09T09:28:45.499Z,12.47
2019-01-09T09:31:16.868Z,13.58
2019-01-09T09:33:47.593Z,14.93
2019-01-09T09:36:17.995Z,14.73
2019-01-09T09:38:48.423Z,18.70
2019-01-09T09:41:18.843Z,19.27
2019-01-09T09:44:05.164Z,14.73
2019-01-09T09:46:35.617Z,13.07
2019-01-09T09:49:06.088Z,16.33
2019-01-09T09:51:36.780Z,17.47
2019-01-09T09:54:07.595Z,16.35
2019-01-09T09:56:37.922Z,17.37
2019-01-09T09:59:08.564Z,17.13
2019-01-09T10:01:38.987Z,16.43
2019-01-09T10:04:09.475Z,14.67
2019-01-09T10:06:39.826Z,25.23
2019-01-09T10:09:12.029Z,17.42
2019-01-09T10:11:42.476Z,16.77
2019-01-09T10:14:12.848Z,18.30
2019-01-09T10:16:43.544Z,14.90
2019-01-09T10:19:14.787Z,17.73
2019-01-09T10:21:45.634Z,17.85
2019-01-09T10:24:16.062Z,19.13
2019-01-09T10:26:46.463Z,10.77
2019-01-09T10:29:16.823Z,11.20
2019-01-09T10:31:47.398Z,12.10
2019-01-09T10:34:17.797Z,13.07
2019-01-09T10:36:48.857Z,9.77
2019-01-09T10:39:19.629Z,7.67
2019-01-09T10:41:50.041Z,8.93
2019-01-09T10:44:20.556Z,9.10
2019-01-09T10:46:50.978Z,9.90
2019-01-09T10:49:21.723Z,11.93
2019-01-09T10:51:52.376Z,11.80
2019-01-09T10:54:22.846Z,8.23
2019-01-09T10:56:53.487Z,9.27
2019-01-09T10:59:23.838Z,8.00
2019-01-09T11:01:54.533Z,8.77
2019-01-09T11:04:24.883Z,9.00
2019-01-09T11:06:55.522Z,7.58
2019-01-09T11:09:25.940Z,11.03
2019-01-09T11:11:58.593Z,7.85
2019-01-09T11:14:29.001Z,6.87
2019-01-09T11:17:08.207Z,6.53
2019-01-09T11:19:38.772Z,6.97
2019-01-09T11:22:09.381Z,6.22
2019-01-09T11:24:39.825Z,5.83
2019-01-09T11:27:10.436Z,7.77
2019-01-09T11:29:40.972Z,7.83
2019-01-09T11:32:11.687Z,7.35
2019-01-09T11:34:42.020Z,8.03
2019-01-09T11:37:12.672Z,9.50
2019-01-09T11:39:43.483Z,11.68
2019-01-09T11:42:13.834Z,11.63
2019-01-09T11:44:44.487Z,11.85
2019-01-09T11:47:14.967Z,10.73
2019-01-09T11:49:45.620Z,20.50
2019-01-09T11:52:15.964Z,10.77
2019-01-09T11:54:46.701Z,11.33
2019-01-09T11:57:17.339Z,12.47
2019-01-09T11:59:47.669Z,16.53
2019-01-09T12:02:22.260Z,13.75
2019-01-09T12:04:50.502Z,11.00
2019-01-09T12:07:20.814Z,15.23
2019-01-09T12:09:51.569Z,12.10
2019-01-09T12:12:21.948Z,13.63
2019-01-09T12:14:52.559Z,15.57
2019-01-09T12:17:22.959Z,10.73
2019-01-09T12:19:53.463Z,11.13
2019-01-09T12:22:23.843Z,9.60
2019-01-09T12:24:54.557Z,5.75
2019-01-09T12:27:24.873Z,10.30
2019-01-09T12:29:55.637Z,9.68
2019-01-09T12:32:26.078Z,12.47
2019-01-09T12:34:56.810Z,8.93
2019-01-09T12:37:27.440Z,9.25
2019-01-09T12:39:57.827Z,9.87
2019-01-09T12:42:28.511Z,9.43
2019-01-09T12:44:59.362Z,8.03
2019-01-09T12:47:29.839Z,8.57
2019-01-09T12:50:07.276Z,9.63
2019-01-09T12:52:37.735Z,11.00
2019-01-09T12:55:08.721Z,9.57
2019-01-09T12:57:39.391Z,10.10
2019-01-09T13:00:20.250Z,11.13
2019-01-09T13:02:50.822Z,10.17
2019-01-09T13:05:21.471Z,10.90
2019-01-09T13:07:51.847Z,9.97
2019-01-09T13:10:22.612Z,9.20
2019-01-09T13:12:53.059Z,76.77
2019-01-09T13:15:23.450Z,67.70
2019-01-09T13:17:53.929Z,96.50
2019-01-09T13:20:24.448Z,233.97
2019-01-09T13:22:54.835Z,188.77
2019-01-09T13:25:26.990Z,24.95
2019-01-09T13:27:57.545Z,27.17
2019-01-09T13:30:27.971Z,9.23
2019-01-09T13:32:58.850Z,8.48
2019-01-09T13:35:29.518Z,8.93
2019-01-09T13:37:59.839Z,7.73
2019-01-09T13:40:30.637Z,8.33
2019-01-09T13:43:01.008Z,8.60
2019-01-09T13:45:31.522Z,8.87
2019-01-09T13:48:01.952Z,8.37
2019-01-09T13:50:32.435Z,8.53
2019-01-09T13:53:02.777Z,8.23
2019-01-09T13:55:33.667Z,9.13
2019-01-09T13:58:04.296Z,8.08
2019-01-09T14:00:34.940Z,8.27
2019-01-09T14:03:06.936Z,8.68
2019-01-09T14:05:37.426Z,8.97
2019-01-09T14:08:07.737Z,9.93
2019-01-09T14:10:38.442Z,9.10
2019-01-09T14:13:08.835Z,8.93
2019-01-09T14:15:39.442Z,12.43
2019-01-09T14:18:09.891Z,12.07
2019-01-09T14:20:40.506Z,11.20
2019-01-09T14:23:11.680Z,9.80
2019-01-09T14:25:42.545Z,10.85
2019-01-09T14:28:13.014Z,11.70
2019-01-09T14:30:43.665Z,20.70
2019-01-09T14:33:14.530Z,19.73
2019-01-09T14:35:44.953Z,24.00
2019-01-09T14:38:15.640Z,24.50
2019-01-09T14:40:46.455Z,22.27
2019-01-09T14:43:16.807Z,20.83
2019-01-09T14:45:47.512Z,22.63
2019-01-09T14:48:17.969Z,47.40
2019-01-09T14:50:50.127Z,79.10
2019-01-09T14:53:20.728Z,79.00
2019-01-09T14:55:51.465Z,62.75
2019-01-09T14:58:21.873Z,56.53
2019-01-09T15:00:52.902Z,35.47
2019-01-09T15:03:23.621Z,30.37
2019-01-09T15:05:54.473Z,33.42
2019-01-09T15:08:24.865Z,42.50
2019-01-09T15:10:55.633Z,56.80
2019-01-09T15:13:26.034Z,92.80
2019-01-09T15:15:56.758Z,121.28
2019-01-09T15:18:27.512Z,133.27
2019-01-09T15:20:57.837Z,84.30
2019-01-09T15:23:28.524Z,48.43
2019-01-09T15:26:02.553Z,127.23
2019-01-09T15:28:32.949Z,142.13
2019-01-09T15:31:03.789Z,108.37
2019-01-09T15:33:34.501Z,117.57
2019-01-09T15:36:05.237Z,126.03
2019-01-09T15:38:35.843Z,115.47
2019-01-09T15:41:08.062Z,86.50
2019-01-09T15:43:38.469Z,103.87
2019-01-09T15:46:08.854Z,117.83
2019-01-09T15:48:39.650Z,131.63
2019-01-09T15:51:10.317Z,126.33
2019-01-09T15:53:40.732Z,154.23
2019-01-09T15:56:11.461Z,110.03
2019-01-09T15:58:41.895Z,96.43
2019-01-09T16:01:12.670Z,111.00
2019-01-09T16:03:43.143Z,104.13
2019-01-09T16:06:13.557Z,107.17
2019-01-09T16:08:43.934Z,113.07
2019-01-09T16:11:14.650Z,90.90
2019-01-09T16:13:44.982Z,89.00
2019-01-09T16:16:15.428Z,117.00
2019-01-09T16:18:45.887Z,105.93
2019-01-09T16:21:16.519Z,75.70
2019-01-09T16:23:46.885Z,58.93
2019-01-09T16:26:17.606Z,51.02
2019-01-09T16:28:47.952Z,46.53
2019-01-09T16:31:30.778Z,39.92
2019-01-09T16:34:01.557Z,42.23
2019-01-09T16:36:33.068Z,54.40
2019-01-09T16:39:04.054Z,64.23
2019-01-09T16:41:34.837Z,61.20
2019-01-09T16:44:05.547Z,62.40
2019-01-09T16:46:36.024Z,72.03
2019-01-09T16:49:06.477Z,50.77
2019-01-09T16:51:36.833Z,55.97
2019-01-09T16:54:07.555Z,50.98
2019-01-09T16:56:38.392Z,45.80
2019-01-09T16:59:15.738Z,40.87
2019-01-09T17:01:46.443Z,36.30
2019-01-09T17:04:16.796Z,38.90
2019-01-09T17:06:47.726Z,36.80
2019-01-09T17:09:19.633Z,44.30
2019-01-09T17:11:49.971Z,40.57
2019-01-09T17:14:20.635Z,38.13
2019-01-09T17:16:51.182Z,38.07
2019-01-09T17:19:21.488Z,44.83
2019-01-09T17:21:51.819Z,43.03
2019-01-09T17:24:22.930Z,44.80
2019-01-09T17:26:53.450Z,42.33
2019-01-09T17:29:23.922Z,47.77
2019-01-09T17:31:54.511Z,46.17
2019-01-09T17:34:24.945Z,47.20
2019-01-09T17:36:55.578Z,56.70
2019-01-09T17:39:26.110Z,55.70
2019-01-09T17:41:56.844Z,49.80
2019-01-09T17:44:27.476Z,46.25
2019-01-09T17:46:58.149Z,45.27
2019-01-09T17:49:28.507Z,49.07
2019-01-09T17:51:58.881Z,53.60
2019-01-09T17:54:29.623Z,53.37
2019-01-09T17:56:59.940Z,56.33
2019-01-09T17:59:32.594Z,58.25
2019-01-09T18:02:02.895Z,57.33
2019-01-09T18:04:33.466Z,47.17
2019-01-09T18:07:04.763Z,53.05
2019-01-09T18:09:35.491Z,50.23
2019-01-09T18:12:06.098Z,57.13
2019-01-09T18:14:36.451Z,57.83
2019-01-09T18:17:06.884Z,52.07
2019-01-09T18:19:37.591Z,48.87
2019-01-09T18:22:08.512Z,50.80
2019-01-09T18:24:38.968Z,65.17
2019-01-09T18:27:09.609Z,57.80
2019-01-09T18:29:39.940Z,63.43
2019-01-09T18:32:25.936Z,73.13
2019-01-09T18:35:14.242Z,72.82
2019-01-09T18:38:16.077Z,81.33
2019-01-09T18:41:16.092Z,71.40
2019-01-09T18:44:18.123Z,66.73
2019-01-09T18:47:12.344Z,71.00
2019-01-09T18:50:32.264Z,74.33
2019-01-09T18:53:19.471Z,82.47
2019-01-09T18:55:50.525Z,69.25
2019-01-09T18:58:20.857Z,75.93
2019-01-09T19:00:51.530Z,76.17
2019-01-09T19:03:28.476Z,72.77
2019-01-09T19:05:59.491Z,77.13
2019-01-09T19:08:29.843Z,71.60
2019-01-09T19:11:07.670Z,72.40
2019-01-09T19:13:32.643Z,64.07
2019-01-09T19:16:03.000Z,60.33
2019-01-09T19:18:33.550Z,61.27
2019-01-09T19:21:03.941Z,60.90
2019-01-09T19:23:34.575Z,61.48
2019-01-09T19:26:06.803Z,60.27
2019-01-09T19:28:37.430Z,56.97
2019-01-09T19:31:07.784Z,53.17
2019-01-09T19:33:38.575Z,60.52
2019-01-09T19:36:08.988Z,62.93
2019-01-09T19:38:39.908Z,61.50
2019-01-09T19:41:16.932Z,62.30
2019-01-09T19:43:42.778Z,83.13
2019-01-09T19:46:13.523Z,79.03
2019-01-09T19:48:44.198Z,94.73
2019-01-09T19:51:17.723Z,147.10
2019-01-09T19:53:46.963Z,171.53
2019-01-09T19:56:18.925Z,120.97
2019-01-09T19:58:49.539Z,140.37
2019-01-09T20:01:19.884Z,140.33
2019-01-09T20:03:50.647Z,113.47
2019-01-09T20:06:21.045Z,112.87
2019-01-09T20:08:51.563Z,109.97
2019-01-09T20:11:26.511Z,123.83
2019-01-09T20:13:54.213Z,749.43
2019-01-09T20:16:24.944Z,367.20
2019-01-09T20:18:55.831Z,95.07
2019-01-09T20:21:26.535Z,70.17
2019-01-09T20:23:56.915Z,67.57
2019-01-09T20:26:27.670Z,55.75
2019-01-09T20:28:58.069Z,57.27
2019-01-09T20:31:28.826Z,58.73
2019-01-09T20:33:59.566Z,58.50
2019-01-09T20:36:31.723Z,51.00
2019-01-09T20:39:02.542Z,58.00
2019-01-09T20:41:35.420Z,65.27
2019-01-09T20:44:05.459Z,81.67
2019-01-09T20:46:35.824Z,102.17
2019-01-09T20:49:06.873Z,105.32
2019-01-09T20:51:37.715Z,99.23
2019-01-09T20:54:09.410Z,100.50
2019-01-09T20:56:40.014Z,103.97
2019-01-09T20:59:10.653Z,963.67
2019-01-09T21:01:41.169Z,428.87
2019-01-09T21:04:11.606Z,109.87
2019-01-09T21:06:42.087Z,64.87
2019-01-09T21:09:12.495Z,60.80
2019-01-09T21:11:44.466Z,56.57
2019-01-09T21:14:15.392Z,56.77
2019-01-09T21:16:45.919Z,49.90
2019-01-09T21:19:16.937Z,53.97
2019-01-09T21:21:47.560Z,52.50
2019-01-09T21:24:17.977Z,47.23
2019-01-09T21:26:48.840Z,48.77
2019-01-09T21:29:19.668Z,53.63
2019-01-09T21:31:50.343Z,57.30
2019-01-09T21:34:20.959Z,62.15
2019-01-09T21:36:51.823Z,75.43
2019-01-09T21:39:23.058Z,57.93
2019-01-09T21:41:53.726Z,58.00
2019-01-09T21:44:24.589Z,51.08
2019-01-09T21:46:55.022Z,51.23
2019-01-09T21:49:25.592Z,59.00
2019-01-09T21:51:56.104Z,62.40
2019-01-09T21:54:26.585Z,70.17
2019-01-09T21:56:57.438Z,71.10
2019-01-09T21:59:27.903Z,72.23
2019-01-09T22:01:58.689Z,67.53
2019-01-09T22:04:29.845Z,70.95
2019-01-09T22:07:00.701Z,71.80
2019-01-09T22:09:31.691Z,84.83
2019-01-09T22:12:02.871Z,71.90
2019-01-09T22:14:33.562Z,92.85
2019-01-09T22:17:04.042Z,74.00
2019-01-09T22:19:35.939Z,84.95
2019-01-09T22:22:06.689Z,78.53
2019-01-09T22:24:37.204Z,64.13
2019-01-09T22:27:07.909Z,69.17
2019-01-09T22:29:38.644Z,65.90
2019-01-09T22:32:08.997Z,66.27
2019-01-09T22:34:39.687Z,66.92
2019-01-09T22:37:10.360Z,65.42
2019-01-09T22:39:40.817Z,73.10
2019-01-09T22:42:12.306Z,70.43
2019-01-09T22:44:42.802Z,66.70
2019-01-09T22:47:13.468Z,66.25
2019-01-09T22:49:43.873Z,68.07
2019-01-09T22:52:14.452Z,65.07
2019-01-09T22:54:44.975Z,65.23
2019-01-09T22:57:15.458Z,66.07
2019-01-09T22:59:46.821Z,69.42
2019-01-09T23:02:17.650Z,73.33
2019-01-09T23:04:47.982Z,66.17
2019-01-09T23:07:18.425Z,67.30
2019-01-09T23:09:48.999Z,68.23
2019-01-09T23:12:21.461Z,68.03
2019-01-09T23:14:51.712Z,64.13
2019-01-09T23:17:22.540Z,65.05
2019-01-09T23:19:52.999Z,72.77
2019-01-09T23:22:23.536Z,66.50
2019-01-09T23:24:54.026Z,67.47
2019-01-09T23:27:24.458Z,68.00
2019-01-09T23:29:54.805Z,75.37
2019-01-09T23:32:25.530Z,83.07
2019-01-09T23:34:55.984Z,87.87
2019-01-09T23:37:27.835Z,80.67
2019-01-09T23:39:58.595Z,78.43
2019-01-09T23:42:30.550Z,79.63
2019-01-09T23:45:01.494Z,84.53
2019-01-09T23:47:31.856Z,89.70
2019-01-09T23:50:02.326Z,94.50
2019-01-09T23:52:32.779Z,92.07
2019-01-09T23:55:03.504Z,92.37
2019-01-09T23:57:33.794Z,96.57
